DLH943 EGCC-EDDH
Flight info
| Callsign | DLH943 |
|---|---|
| Flight time | 1h 21m |
| Altitude | 35000 |
| Route | DESIG L603 LAMSO DCT PETIK DCT ANDIK M105 RIBSO RIBSO3P |
| Aircraft | A320/M-SDE3FGHIRWY/LB1 |
Departure
| Time | 2026-04-23 19:16 |
|---|---|
| Airport | Manchester Airport (EGCC) |
Arrival
| Time | 2026-04-23 20:37 |
|---|---|
| Airport | Hamburg Helmut Schmidt Airport (EDDH) |
| Time | Latitude | Longitude | Altitude | Speed | Heading |
|---|---|---|---|---|---|
| 2026-04-23 18:44 | 53.36425 | -2.28240 | 248 ft | 0 kts | 45° |
| 2026-04-23 18:59 | 53.36410 | -2.28265 | 247 ft | 4 kts | 47° |
| 2026-04-23 18:59 | 53.36393 | -2.28300 | 247 ft | 4 kts | 57° |
| 2026-04-23 18:59 | 53.36382 | -2.28338 | 247 ft | 4 kts | 91° |
| 2026-04-23 19:00 | 53.36385 | -2.28362 | 247 ft | 1 kts | 136° |
| 2026-04-23 19:08 | 53.36379 | -2.28351 | 247 ft | 4 kts | 136° |
| 2026-04-23 19:08 | 53.36352 | -2.28307 | 247 ft | 11 kts | 136° |
| 2026-04-23 19:08 | 53.36292 | -2.28210 | 247 ft | 13 kts | 135° |
| 2026-04-23 19:09 | 53.36216 | -2.28132 | 247 ft | 13 kts | 191° |
| 2026-04-23 19:09 | 53.36143 | -2.28130 | 247 ft | 11 kts | 132° |
| 2026-04-23 19:09 | 53.36085 | -2.28028 | 247 ft | 13 kts | 133° |
| 2026-04-23 19:09 | 53.36017 | -2.27921 | 247 ft | 14 kts | 136° |
| 2026-04-23 19:10 | 53.35930 | -2.27843 | 247 ft | 15 kts | 185° |
| 2026-04-23 19:10 | 53.35819 | -2.27864 | 247 ft | 17 kts | 186° |
| 2026-04-23 19:10 | 53.35715 | -2.27879 | 247 ft | 0 kts | 185° |
| 2026-04-23 19:11 | 53.35665 | -2.27887 | 247 ft | 14 kts | 185° |
| 2026-04-23 19:11 | 53.35567 | -2.27904 | 247 ft | 14 kts | 186° |
| 2026-04-23 19:11 | 53.35459 | -2.27930 | 245 ft | 17 kts | 200° |
| 2026-04-23 19:11 | 53.35362 | -2.28071 | 241 ft | 20 kts | 224° |
| 2026-04-23 19:12 | 53.35291 | -2.28187 | 237 ft | 23 kts | 224° |
| 2026-04-23 19:12 | 53.35148 | -2.28473 | 230 ft | 17 kts | 231° |
| 2026-04-23 19:12 | 53.35092 | -2.28588 | 232 ft | 11 kts | 231° |
| 2026-04-23 19:12 | 53.35048 | -2.28681 | 233 ft | 11 kts | 231° |
| 2026-04-23 19:13 | 53.34995 | -2.28774 | 230 ft | 11 kts | 225° |
| 2026-04-23 19:13 | 53.34941 | -2.28867 | 228 ft | 11 kts | 226° |
| 2026-04-23 19:13 | 53.34882 | -2.28972 | 222 ft | 14 kts | 226° |
| 2026-04-23 19:13 | 53.34810 | -2.29062 | 222 ft | 5 kts | 199° |
| 2026-04-23 19:14 | 53.34775 | -2.29076 | 221 ft | 6 kts | 183° |
| 2026-04-23 19:14 | 53.34711 | -2.29045 | 219 ft | 12 kts | 154° |
| 2026-04-23 19:14 | 53.34673 | -2.28954 | 221 ft | 9 kts | 77° |
| 2026-04-23 19:14 | 53.34682 | -2.28927 | 222 ft | 0 kts | 54° |
| 2026-04-23 19:15 | 53.34725 | -2.28839 | 222 ft | 37 kts | 50° |
| 2026-04-23 19:15 | 53.35042 | -2.28182 | 237 ft | 106 kts | 51° |
| 2026-04-23 19:15 | 53.35619 | -2.26983 | 276 ft | 156 kts | 53° |
| 2026-04-23 19:16 | 53.36297 | -2.25561 | 938 ft | 153 kts | 53° |
| 2026-04-23 19:16 | 53.36949 | -2.24172 | 1719 ft | 150 kts | 55° |
| 2026-04-23 19:16 | 53.37591 | -2.22801 | 2375 ft | 150 kts | 55° |
| 2026-04-23 19:17 | 53.38985 | -2.19845 | 3219 ft | 178 kts | 54° |
| 2026-04-23 19:17 | 53.39787 | -2.18142 | 3591 ft | 196 kts | 55° |
| 2026-04-23 19:17 | 53.40678 | -2.16207 | 3896 ft | 222 kts | 55° |
| 2026-04-23 19:17 | 53.41661 | -2.14045 | 4319 ft | 244 kts | 54° |
| 2026-04-23 19:18 | 53.42757 | -2.11718 | 4840 ft | 262 kts | 53° |
| 2026-04-23 19:18 | 53.43930 | -2.09342 | 5406 ft | 267 kts | 51° |
| 2026-04-23 19:18 | 53.45166 | -2.06922 | 6079 ft | 276 kts | 52° |
| 2026-04-23 19:18 | 53.46359 | -2.04431 | 7110 ft | 273 kts | 52° |
| 2026-04-23 19:19 | 53.48705 | -1.99328 | 8794 ft | 280 kts | 52° |
| 2026-04-23 19:19 | 53.49917 | -1.96713 | 9591 ft | 286 kts | 52° |
| 2026-04-23 19:20 | 53.51981 | -1.90933 | 11083 ft | 296 kts | 75° |
| 2026-04-23 19:20 | 53.52205 | -1.87410 | 11445 ft | 316 kts | 97° |
| 2026-04-23 19:20 | 53.51709 | -1.83723 | 11673 ft | 339 kts | 107° |
| 2026-04-23 19:20 | 53.50940 | -1.79835 | 11863 ft | 361 kts | 110° |
| 2026-04-23 19:21 | 53.50129 | -1.75759 | 12371 ft | 371 kts | 107° |
| 2026-04-23 19:21 | 53.48730 | -1.67304 | 13745 ft | 381 kts | 105° |
| 2026-04-23 19:21 | 53.48037 | -1.62983 | 14388 ft | 385 kts | 105° |
| 2026-04-23 19:22 | 53.47318 | -1.58622 | 14993 ft | 389 kts | 106° |
| 2026-04-23 19:22 | 53.46571 | -1.54254 | 15615 ft | 391 kts | 106° |
| 2026-04-23 19:22 | 53.44993 | -1.45431 | 16771 ft | 397 kts | 107° |
| 2026-04-23 19:23 | 53.44182 | -1.40995 | 17375 ft | 399 kts | 107° |
| 2026-04-23 19:23 | 53.43376 | -1.36595 | 17938 ft | 401 kts | 107° |
| 2026-04-23 19:23 | 53.42552 | -1.32108 | 18496 ft | 403 kts | 108° |
| 2026-04-23 19:24 | 53.40899 | -1.23062 | 19524 ft | 407 kts | 107° |
| 2026-04-23 19:24 | 53.40071 | -1.18498 | 20006 ft | 409 kts | 107° |
| 2026-04-23 19:24 | 53.38401 | -1.09327 | 20947 ft | 413 kts | 107° |
| 2026-04-23 19:25 | 53.36998 | -1.01639 | 21715 ft | 417 kts | 108° |
| 2026-04-23 19:25 | 53.35001 | -0.90782 | 22747 ft | 422 kts | 109° |
| 2026-04-23 19:26 | 53.33543 | -0.82942 | 23451 ft | 426 kts | 109° |
| 2026-04-23 19:26 | 53.32660 | -0.78201 | 23853 ft | 428 kts | 109° |
| 2026-04-23 19:27 | 53.30871 | -0.68650 | 24563 ft | 432 kts | 109° |
| 2026-04-23 19:27 | 53.28154 | -0.54186 | 25593 ft | 437 kts | 110° |
| 2026-04-23 19:28 | 53.26313 | -0.44455 | 26266 ft | 440 kts | 110° |
| 2026-04-23 19:28 | 53.24469 | -0.34737 | 26913 ft | 442 kts | 110° |
| 2026-04-23 19:29 | 53.23536 | -0.29836 | 27242 ft | 443 kts | 111° |
| 2026-04-23 19:29 | 53.21654 | -0.19999 | 27850 ft | 446 kts | 111° |
| 2026-04-23 19:30 | 53.19751 | -0.10104 | 28428 ft | 449 kts | 111° |
| 2026-04-23 19:30 | 53.18803 | -0.05204 | 28759 ft | 449 kts | 111° |
| 2026-04-23 19:30 | 53.16887 | 0.04681 | 29581 ft | 445 kts | 112° |
| 2026-04-23 19:31 | 53.15933 | 0.09595 | 30015 ft | 444 kts | 112° |
| 2026-04-23 19:31 | 53.14995 | 0.14419 | 30430 ft | 442 kts | 112° |
| 2026-04-23 19:31 | 53.14047 | 0.19280 | 30802 ft | 441 kts | 112° |
| 2026-04-23 19:31 | 53.13095 | 0.24128 | 31147 ft | 439 kts | 112° |
| 2026-04-23 19:32 | 53.12143 | 0.28956 | 31477 ft | 438 kts | 112° |
| 2026-04-23 19:32 | 53.11190 | 0.33774 | 31804 ft | 437 kts | 113° |
| 2026-04-23 19:32 | 53.10238 | 0.38577 | 32120 ft | 436 kts | 113° |
| 2026-04-23 19:32 | 53.09287 | 0.43366 | 32457 ft | 436 kts | 113° |
| 2026-04-23 19:33 | 53.08360 | 0.48031 | 32778 ft | 435 kts | 113° |
| 2026-04-23 19:33 | 53.07408 | 0.52798 | 33081 ft | 434 kts | 113° |
| 2026-04-23 19:33 | 53.05518 | 0.62250 | 33723 ft | 432 kts | 113° |
| 2026-04-23 19:34 | 53.04568 | 0.66996 | 34051 ft | 431 kts | 113° |
| 2026-04-23 19:34 | 53.03942 | 0.70119 | 34274 ft | 430 kts | 113° |
| 2026-04-23 19:34 | 53.01728 | 0.81115 | 34944 ft | 428 kts | 113° |
| 2026-04-23 19:35 | 53.00780 | 0.85803 | 35194 ft | 428 kts | 113° |
| 2026-04-23 19:35 | 52.99823 | 0.90492 | 35405 ft | 428 kts | 113° |
| 2026-04-23 19:35 | 52.98863 | 0.95181 | 35466 ft | 430 kts | 113° |
| 2026-04-23 19:36 | 52.97315 | 1.04764 | 35465 ft | 436 kts | 105° |
| 2026-04-23 19:36 | 52.96191 | 1.14664 | 35469 ft | 436 kts | 105° |
| 2026-04-23 19:37 | 52.95047 | 1.24548 | 35463 ft | 436 kts | 105° |
| 2026-04-23 19:37 | 52.93887 | 1.34424 | 35463 ft | 436 kts | 105° |
| 2026-04-23 19:38 | 52.92719 | 1.44295 | 35464 ft | 436 kts | 105° |
| 2026-04-23 19:38 | 52.91560 | 1.54103 | 35438 ft | 436 kts | 105° |
| 2026-04-23 19:39 | 52.90382 | 1.63967 | 35442 ft | 437 kts | 105° |
| 2026-04-23 19:39 | 52.89193 | 1.73841 | 35445 ft | 437 kts | 105° |
| 2026-04-23 19:40 | 52.87997 | 1.83728 | 35445 ft | 437 kts | 105° |
| 2026-04-23 19:40 | 52.86790 | 1.93609 | 35451 ft | 438 kts | 106° |
| 2026-04-23 19:41 | 52.85581 | 2.03432 | 35438 ft | 438 kts | 106° |
| 2026-04-23 19:41 | 52.84353 | 2.13309 | 35444 ft | 438 kts | 106° |
| 2026-04-23 19:42 | 52.83113 | 2.23193 | 35441 ft | 439 kts | 106° |
| 2026-04-23 19:42 | 52.81873 | 2.33085 | 35445 ft | 439 kts | 106° |
| 2026-04-23 19:43 | 52.80621 | 2.42976 | 35447 ft | 439 kts | 106° |
| 2026-04-23 19:43 | 52.79368 | 2.52800 | 35430 ft | 439 kts | 106° |
| 2026-04-23 19:44 | 52.78097 | 2.62674 | 35433 ft | 439 kts | 106° |
| 2026-04-23 19:44 | 52.76811 | 2.72557 | 35437 ft | 440 kts | 106° |
| 2026-04-23 19:45 | 52.75523 | 2.82447 | 35435 ft | 440 kts | 106° |
| 2026-04-23 19:45 | 52.74229 | 2.92322 | 35437 ft | 440 kts | 107° |
| 2026-04-23 19:46 | 52.72950 | 3.02208 | 35424 ft | 441 kts | 104° |
| 2026-04-23 19:46 | 52.71985 | 3.12155 | 35431 ft | 443 kts | 102° |
| 2026-04-23 19:47 | 52.71154 | 3.22243 | 35426 ft | 443 kts | 102° |
| 2026-04-23 19:47 | 52.70271 | 3.32284 | 35431 ft | 442 kts | 102° |
| 2026-04-23 19:48 | 52.69317 | 3.42300 | 35434 ft | 442 kts | 103° |
| 2026-04-23 19:48 | 52.68356 | 3.52235 | 35420 ft | 442 kts | 103° |
| 2026-04-23 19:49 | 52.67390 | 3.62252 | 35420 ft | 442 kts | 102° |
| 2026-04-23 19:49 | 52.66422 | 3.72266 | 35428 ft | 443 kts | 103° |
| 2026-04-23 19:50 | 52.65445 | 3.82285 | 35425 ft | 443 kts | 103° |
| 2026-04-23 19:50 | 52.64450 | 3.92312 | 35432 ft | 443 kts | 103° |
| 2026-04-23 19:51 | 52.63451 | 4.02343 | 35425 ft | 443 kts | 103° |
| 2026-04-23 19:51 | 52.62445 | 4.12270 | 35416 ft | 443 kts | 103° |
| 2026-04-23 19:52 | 52.61840 | 4.22371 | 35410 ft | 448 kts | 90° |
| 2026-04-23 19:52 | 52.62855 | 4.32552 | 35406 ft | 452 kts | 82° |
| 2026-04-23 19:53 | 52.64094 | 4.42716 | 35401 ft | 453 kts | 82° |
| 2026-04-23 19:53 | 52.65302 | 4.52844 | 35401 ft | 453 kts | 82° |
| 2026-04-23 19:54 | 52.66516 | 4.63037 | 35403 ft | 453 kts | 82° |
| 2026-04-23 19:54 | 52.67722 | 4.73231 | 35401 ft | 453 kts | 82° |
| 2026-04-23 19:55 | 52.68922 | 4.83378 | 35402 ft | 453 kts | 82° |
| 2026-04-23 19:55 | 52.70115 | 4.93612 | 35399 ft | 454 kts | 82° |
| 2026-04-23 19:56 | 52.71295 | 5.03857 | 35395 ft | 455 kts | 82° |
| 2026-04-23 19:56 | 52.72472 | 5.14102 | 35402 ft | 455 kts | 82° |
| 2026-04-23 19:57 | 52.73645 | 5.24374 | 35406 ft | 455 kts | 82° |
| 2026-04-23 19:57 | 52.74476 | 5.29424 | 35414 ft | 459 kts | 71° |
| 2026-04-23 19:57 | 52.75802 | 5.34227 | 35410 ft | 460 kts | 67° |
| 2026-04-23 19:58 | 52.78541 | 5.43826 | 35410 ft | 461 kts | 68° |
| 2026-04-23 19:58 | 52.81278 | 5.53414 | 35408 ft | 461 kts | 67° |
| 2026-04-23 19:59 | 52.83992 | 5.62950 | 35415 ft | 461 kts | 67° |
| 2026-04-23 19:59 | 52.86711 | 5.72577 | 35413 ft | 461 kts | 67° |
| 2026-04-23 20:00 | 52.89424 | 5.82188 | 35412 ft | 461 kts | 67° |
| 2026-04-23 20:00 | 52.92132 | 5.91822 | 35407 ft | 461 kts | 67° |
| 2026-04-23 20:01 | 52.94842 | 6.01472 | 35408 ft | 461 kts | 67° |
| 2026-04-23 20:01 | 52.97541 | 6.11127 | 35396 ft | 461 kts | 67° |
| 2026-04-23 20:02 | 53.00227 | 6.20809 | 35402 ft | 460 kts | 67° |
| 2026-04-23 20:02 | 53.02873 | 6.30412 | 35402 ft | 460 kts | 67° |
| 2026-04-23 20:03 | 53.05533 | 6.40089 | 35398 ft | 460 kts | 67° |
| 2026-04-23 20:03 | 53.08184 | 6.49760 | 35393 ft | 460 kts | 67° |
| 2026-04-23 20:04 | 53.10836 | 6.59454 | 35378 ft | 460 kts | 67° |
| 2026-04-23 20:04 | 53.13483 | 6.69177 | 35375 ft | 461 kts | 67° |
| 2026-04-23 20:05 | 53.15683 | 6.77271 | 35377 ft | 461 kts | 67° |
| 2026-04-23 20:05 | 53.18738 | 6.88610 | 35371 ft | 461 kts | 67° |
| 2026-04-23 20:06 | 53.21350 | 6.98387 | 35355 ft | 460 kts | 67° |
| 2026-04-23 20:06 | 53.23947 | 7.08105 | 35352 ft | 461 kts | 67° |
| 2026-04-23 20:07 | 53.26568 | 7.17950 | 35348 ft | 461 kts | 67° |
| 2026-04-23 20:07 | 53.29145 | 7.27687 | 35345 ft | 461 kts | 67° |
| 2026-04-23 20:08 | 53.31736 | 7.37495 | 35345 ft | 461 kts | 67° |
| 2026-04-23 20:08 | 53.34323 | 7.47319 | 35345 ft | 461 kts | 67° |
| 2026-04-23 20:09 | 53.36900 | 7.57166 | 35345 ft | 461 kts | 67° |
| 2026-04-23 20:09 | 53.39470 | 7.67031 | 35289 ft | 461 kts | 67° |
| 2026-04-23 20:09 | 53.40739 | 7.71916 | 35046 ft | 451 kts | 68° |
| 2026-04-23 20:10 | 53.41559 | 7.75078 | 34878 ft | 444 kts | 67° |
| 2026-04-23 20:10 | 53.43181 | 7.81353 | 34559 ft | 432 kts | 66° |
| 2026-04-23 20:10 | 53.44368 | 7.85958 | 34304 ft | 428 kts | 66° |
| 2026-04-23 20:10 | 53.45148 | 7.88989 | 34124 ft | 426 kts | 66° |
| 2026-04-23 20:11 | 53.46712 | 7.95076 | 33730 ft | 424 kts | 67° |
| 2026-04-23 20:11 | 53.47486 | 7.98096 | 33146 ft | 428 kts | 66° |
| 2026-04-23 20:11 | 53.48652 | 8.02660 | 32720 ft | 422 kts | 66° |
| 2026-04-23 20:11 | 53.50178 | 8.08637 | 32096 ft | 417 kts | 66° |
| 2026-04-23 20:12 | 53.51321 | 8.13117 | 31640 ft | 414 kts | 66° |
| 2026-04-23 20:12 | 53.52068 | 8.16047 | 31335 ft | 411 kts | 66° |
| 2026-04-23 20:12 | 53.53188 | 8.20451 | 30905 ft | 407 kts | 66° |
| 2026-04-23 20:12 | 53.54292 | 8.24810 | 30461 ft | 404 kts | 67° |
| 2026-04-23 20:13 | 53.55387 | 8.29138 | 29976 ft | 400 kts | 67° |
| 2026-04-23 20:13 | 53.56473 | 8.33436 | 29466 ft | 396 kts | 66° |
| 2026-04-23 20:13 | 53.57541 | 8.37677 | 28991 ft | 392 kts | 66° |
| 2026-04-23 20:13 | 53.58601 | 8.41886 | 28496 ft | 389 kts | 65° |
| 2026-04-23 20:14 | 53.59652 | 8.46069 | 27996 ft | 386 kts | 66° |
| 2026-04-23 20:14 | 53.60692 | 8.50220 | 27507 ft | 384 kts | 65° |
| 2026-04-23 20:14 | 53.61725 | 8.54341 | 27017 ft | 381 kts | 65° |
| 2026-04-23 20:14 | 53.62750 | 8.58448 | 26542 ft | 379 kts | 65° |
| 2026-04-23 20:15 | 53.63766 | 8.62532 | 26071 ft | 377 kts | 65° |
| 2026-04-23 20:15 | 53.64772 | 8.66589 | 25609 ft | 374 kts | 65° |
| 2026-04-23 20:15 | 53.65773 | 8.70627 | 25164 ft | 372 kts | 64° |
| 2026-04-23 20:15 | 53.66769 | 8.74646 | 24719 ft | 370 kts | 65° |
| 2026-04-23 20:16 | 53.67759 | 8.78647 | 24288 ft | 368 kts | 64° |
| 2026-04-23 20:16 | 53.68742 | 8.82626 | 23851 ft | 367 kts | 64° |
| 2026-04-23 20:16 | 53.69710 | 8.86549 | 23361 ft | 365 kts | 64° |
| 2026-04-23 20:16 | 53.70681 | 8.90489 | 22939 ft | 362 kts | 64° |
| 2026-04-23 20:17 | 53.71640 | 8.94389 | 22523 ft | 358 kts | 64° |
| 2026-04-23 20:17 | 53.72588 | 8.98259 | 22111 ft | 355 kts | 64° |
| 2026-04-23 20:17 | 53.73527 | 9.02095 | 21693 ft | 353 kts | 64° |
| 2026-04-23 20:17 | 53.74462 | 9.05915 | 21291 ft | 350 kts | 64° |
| 2026-04-23 20:18 | 53.75386 | 9.09702 | 20890 ft | 348 kts | 64° |
| 2026-04-23 20:18 | 53.76305 | 9.13479 | 20459 ft | 346 kts | 65° |
| 2026-04-23 20:18 | 53.77222 | 9.17249 | 19974 ft | 347 kts | 64° |
| 2026-04-23 20:18 | 53.78138 | 9.21020 | 19493 ft | 347 kts | 64° |
| 2026-04-23 20:19 | 53.79052 | 9.24798 | 19002 ft | 348 kts | 64° |
| 2026-04-23 20:19 | 53.79967 | 9.28590 | 18539 ft | 348 kts | 64° |
| 2026-04-23 20:19 | 53.80881 | 9.32379 | 18012 ft | 348 kts | 65° |
| 2026-04-23 20:19 | 53.81568 | 9.36323 | 17486 ft | 352 kts | 75° |
| 2026-04-23 20:20 | 53.82054 | 9.40352 | 16961 ft | 346 kts | 75° |
| 2026-04-23 20:20 | 53.82525 | 9.44284 | 16453 ft | 336 kts | 75° |
| 2026-04-23 20:20 | 53.82987 | 9.48116 | 15965 ft | 328 kts | 75° |
| 2026-04-23 20:20 | 53.83443 | 9.51890 | 15479 ft | 327 kts | 75° |
| 2026-04-23 20:21 | 53.83898 | 9.55653 | 15001 ft | 325 kts | 75° |
| 2026-04-23 20:21 | 53.84350 | 9.59396 | 14524 ft | 324 kts | 75° |
| 2026-04-23 20:21 | 53.84798 | 9.63124 | 14056 ft | 322 kts | 74° |
| 2026-04-23 20:21 | 53.85245 | 9.66838 | 13520 ft | 321 kts | 74° |
| 2026-04-23 20:22 | 53.85689 | 9.70555 | 13009 ft | 321 kts | 74° |
| 2026-04-23 20:22 | 53.86113 | 9.74154 | 12475 ft | 310 kts | 74° |
| 2026-04-23 20:22 | 53.86530 | 9.77685 | 12005 ft | 301 kts | 73° |
| 2026-04-23 20:22 | 53.86812 | 9.81161 | 11584 ft | 298 kts | 86° |
| 2026-04-23 20:23 | 53.86557 | 9.84690 | 11068 ft | 297 kts | 94° |
| 2026-04-23 20:23 | 53.86255 | 9.88078 | 10592 ft | 293 kts | 93° |
| 2026-04-23 20:23 | 53.85958 | 9.91467 | 10100 ft | 290 kts | 93° |
| 2026-04-23 20:23 | 53.85685 | 9.94823 | 9553 ft | 286 kts | 92° |
| 2026-04-23 20:24 | 53.85443 | 9.98149 | 9011 ft | 282 kts | 91° |
| 2026-04-23 20:24 | 53.85220 | 10.01409 | 8463 ft | 275 kts | 91° |
| 2026-04-23 20:24 | 53.85004 | 10.04577 | 7960 ft | 267 kts | 91° |
| 2026-04-23 20:24 | 53.84784 | 10.07657 | 7528 ft | 261 kts | 91° |
| 2026-04-23 20:25 | 53.84568 | 10.10684 | 7309 ft | 255 kts | 91° |
| 2026-04-23 20:25 | 53.84354 | 10.13659 | 7228 ft | 262 kts | 91° |
| 2026-04-23 20:25 | 53.84194 | 10.16752 | 7202 ft | 261 kts | 82° |
| 2026-04-23 20:25 | 53.84496 | 10.19710 | 7161 ft | 250 kts | 63° |
| 2026-04-23 20:26 | 53.85305 | 10.22194 | 7200 ft | 235 kts | 45° |
| 2026-04-23 20:26 | 53.86425 | 10.24132 | 7229 ft | 227 kts | 37° |
| 2026-04-23 20:26 | 53.87543 | 10.26116 | 7297 ft | 239 kts | 44° |
| 2026-04-23 20:26 | 53.88609 | 10.28329 | 7317 ft | 246 kts | 45° |
| 2026-04-23 20:27 | 53.89678 | 10.30617 | 7077 ft | 251 kts | 45° |
| 2026-04-23 20:27 | 53.90758 | 10.32935 | 6643 ft | 244 kts | 45° |
| 2026-04-23 20:27 | 53.91791 | 10.35132 | 6128 ft | 234 kts | 44° |
| 2026-04-23 20:27 | 53.92813 | 10.37241 | 5861 ft | 231 kts | 44° |
| 2026-04-23 20:28 | 53.93843 | 10.39360 | 5801 ft | 233 kts | 44° |
| 2026-04-23 20:28 | 53.94872 | 10.41478 | 5589 ft | 231 kts | 44° |
| 2026-04-23 20:28 | 53.95672 | 10.43861 | 5470 ft | 242 kts | 70° |
| 2026-04-23 20:28 | 53.95573 | 10.46757 | 5309 ft | 257 kts | 108° |
| 2026-04-23 20:29 | 53.94483 | 10.49184 | 5169 ft | 264 kts | 137° |
| 2026-04-23 20:29 | 53.93047 | 10.51163 | 5069 ft | 266 kts | 144° |
| 2026-04-23 20:29 | 53.91363 | 10.52254 | 4935 ft | 263 kts | 179° |
| 2026-04-23 20:29 | 53.89620 | 10.51686 | 4922 ft | 254 kts | 211° |
| 2026-04-23 20:30 | 53.88212 | 10.49981 | 4956 ft | 246 kts | 233° |
| 2026-04-23 20:30 | 53.85965 | 10.45658 | 4952 ft | 245 kts | 234° |
| 2026-04-23 20:30 | 53.84864 | 10.43471 | 4958 ft | 243 kts | 237° |
| 2026-04-23 20:31 | 53.83795 | 10.41250 | 4971 ft | 243 kts | 238° |
| 2026-04-23 20:31 | 53.82724 | 10.39022 | 4993 ft | 244 kts | 237° |
| 2026-04-23 20:31 | 53.81644 | 10.36807 | 5018 ft | 244 kts | 238° |
| 2026-04-23 20:31 | 53.80566 | 10.34577 | 4981 ft | 245 kts | 237° |
| 2026-04-23 20:32 | 53.79469 | 10.32371 | 4915 ft | 245 kts | 236° |
| 2026-04-23 20:32 | 53.78378 | 10.30138 | 4622 ft | 245 kts | 237° |
| 2026-04-23 20:32 | 53.77315 | 10.27923 | 4283 ft | 246 kts | 237° |
| 2026-04-23 20:32 | 53.76227 | 10.25693 | 3966 ft | 246 kts | 237° |
| 2026-04-23 20:33 | 53.75138 | 10.23470 | 3640 ft | 245 kts | 237° |
| 2026-04-23 20:33 | 53.74053 | 10.21250 | 3269 ft | 244 kts | 237° |
| 2026-04-23 20:33 | 53.72982 | 10.19068 | 2952 ft | 240 kts | 238° |
| 2026-04-23 20:33 | 53.71931 | 10.16908 | 2596 ft | 233 kts | 238° |
| 2026-04-23 20:34 | 53.70930 | 10.14876 | 2314 ft | 217 kts | 238° |
| 2026-04-23 20:34 | 53.69998 | 10.12972 | 2071 ft | 205 kts | 239° |
| 2026-04-23 20:34 | 53.69119 | 10.11181 | 1783 ft | 191 kts | 240° |
| 2026-04-23 20:34 | 53.68317 | 10.09562 | 1602 ft | 168 kts | 240° |
| 2026-04-23 20:35 | 53.67595 | 10.08089 | 1339 ft | 157 kts | 240° |
| 2026-04-23 20:35 | 53.66937 | 10.06732 | 1085 ft | 144 kts | 239° |
| 2026-04-23 20:35 | 53.66319 | 10.05485 | 891 ft | 134 kts | 239° |
| 2026-04-23 20:35 | 53.65723 | 10.04273 | 726 ft | 133 kts | 238° |
| 2026-04-23 20:36 | 53.65139 | 10.03084 | 569 ft | 131 kts | 238° |
| 2026-04-23 20:36 | 53.64553 | 10.01891 | 375 ft | 130 kts | 237° |
| 2026-04-23 20:36 | 53.63972 | 10.00712 | 215 ft | 132 kts | 234° |
| 2026-04-23 20:36 | 53.63375 | 9.99508 | 52 ft | 131 kts | 236° |
| 2026-04-23 20:37 | 53.62873 | 9.98478 | 44 ft | 83 kts | 230° |
| 2026-04-23 20:37 | 53.62649 | 9.98032 | 40 ft | 37 kts | 231° |
| 2026-04-23 20:37 | 53.62519 | 9.97791 | 41 ft | 18 kts | 209° |
| 2026-04-23 20:37 | 53.62429 | 9.97869 | 44 ft | 14 kts | 108° |
| 2026-04-23 20:38 | 53.62430 | 9.97922 | 46 ft | 2 kts | 80° |
| 2026-04-23 20:38 | 53.62436 | 9.97979 | 44 ft | 8 kts | 80° |
| 2026-04-23 20:38 | 53.62469 | 9.98110 | 47 ft | 13 kts | 55° |
| 2026-04-23 20:38 | 53.62524 | 9.98214 | 44 ft | 11 kts | 49° |
| 2026-04-23 20:39 | 53.62572 | 9.98310 | 47 ft | 10 kts | 51° |
| 2026-04-23 20:39 | 53.62616 | 9.98400 | 47 ft | 12 kts | 51° |
| 2026-04-23 20:39 | 53.62691 | 9.98553 | 47 ft | 18 kts | 50° |
| 2026-04-23 20:39 | 53.62766 | 9.98703 | 47 ft | 16 kts | 50° |
| 2026-04-23 20:40 | 53.62832 | 9.98840 | 47 ft | 14 kts | 49° |
| 2026-04-23 20:40 | 53.62894 | 9.98962 | 47 ft | 13 kts | 50° |
| 2026-04-23 20:40 | 53.62948 | 9.99072 | 47 ft | 12 kts | 51° |
| 2026-04-23 20:40 | 53.62997 | 9.99174 | 47 ft | 12 kts | 50° |
| 2026-04-23 20:41 | 53.63058 | 9.99302 | 47 ft | 8 kts | 54° |
| 2026-04-23 20:41 | 53.63079 | 9.99353 | 46 ft | 0 kts | 55° |
| 2026-04-23 20:41 | 53.63083 | 9.99364 | 43 ft | 6 kts | 55° |
| 2026-04-23 20:41 | 53.63134 | 9.99487 | 46 ft | 14 kts | 55° |
| 2026-04-23 20:42 | 53.63192 | 9.99609 | 47 ft | 12 kts | 50° |
| 2026-04-23 20:42 | 53.63239 | 9.99702 | 47 ft | 9 kts | 48° |
| 2026-04-23 20:42 | 53.63290 | 9.99784 | 48 ft | 14 kts | 47° |
| 2026-04-23 20:42 | 53.63350 | 9.99907 | 48 ft | 13 kts | 48° |
| 2026-04-23 20:43 | 53.63389 | 9.99981 | 46 ft | 7 kts | 49° |
| 2026-04-23 20:43 | 53.63421 | 10.00048 | 47 ft | 9 kts | 51° |
| 2026-04-23 20:43 | 53.63457 | 10.00123 | 48 ft | 7 kts | 60° |
| 2026-04-23 20:43 | 53.63451 | 10.00192 | 48 ft | 6 kts | 106° |
| 2026-04-23 20:44 | 53.63447 | 10.00234 | 46 ft | 3 kts | 91° |
| 2026-04-23 20:44 | 53.63448 | 10.00264 | 48 ft | 3 kts | 84° |
| 2026-04-23 20:44 | 53.63450 | 10.00300 | 48 ft | 3 kts | 85° |
| 2026-04-23 20:44 | 53.63451 | 10.00314 | 48 ft | 0 kts | 86° |